Time;durP1;ratioP1;P1;durP2;ratioP2;P2;SDS_P1;SDS_P2;PMS_P1;PMS_P2;Temp;Humidity;BMP_temperature;BMP_pressure;BME280_temperature;BME280_humidity;BME280_pressure;Samples;Min_cycle;Max_cycle;Signal;HPM_P1;HPM_P2
2022/07/12 00:01:40;;;;;;;1.42;0.98;;;;;;;16.25;81.40;99121.80;1687750;84;20942;-69
2022/07/12 00:04:07;;;;;;;2.62;0.95;;;;;;;16.25;81.40;99140.79;1704547;82;21026;-69
2022/07/12 00:06:34;;;;;;;1.85;1.00;;;;;;;16.26;81.45;99128.80;1673415;85;21043;-69
2022/07/12 00:09:00;;;;;;;0.90;0.88;;;;;;;16.26;81.44;99139.66;1671763;84;21013;-69
2022/07/12 00:11:28;;;;;;;1.70;1.60;;;;;;;16.26;81.51;99146.45;1688106;85;21178;-68
2022/07/12 00:13:54;;;;;;;4.22;1.20;;;;;;;16.25;81.56;99150.84;1680728;85;21010;-71
2022/07/12 00:16:22;;;;;;;1.67;1.12;;;;;;;16.21;81.87;99130.84;1694019;84;20981;-70
2022/07/12 00:18:49;;;;;;;1.72;1.35;;;;;;;16.16;81.99;99130.38;1710569;82;21505;-68
2022/07/12 00:21:16;;;;;;;1.37;1.27;;;;;;;16.17;82.30;99134.68;1710399;83;20936;-68
2022/07/12 00:23:43;;;;;;;2.92;1.72;;;;;;;16.14;82.88;99127.16;1697188;84;21883;-66
2022/07/12 00:26:10;;;;;;;7.37;2.60;;;;;;;16.12;83.12;99138.30;1713679;82;20923;-67
2022/07/12 00:28:36;;;;;;;1.95;1.47;;;;;;;16.11;83.33;99129.90;1693088;83;22251;-66
2022/07/12 00:31:04;;;;;;;1.40;1.30;;;;;;;16.09;83.62;99128.59;1707767;83;21394;-66
2022/07/12 00:33:31;;;;;;;1.35;1.17;;;;;;;16.05;83.84;99135.73;1710238;83;20932;-69
2022/07/12 00:35:58;;;;;;;1.80;1.12;;;;;;;16.01;84.29;99139.61;1697050;84;22041;-68
2022/07/12 00:38:25;;;;;;;2.12;0.85;;;;;;;15.97;84.52;99139.14;1694833;84;21061;-69
2022/07/12 00:40:52;;;;;;;2.15;1.82;;;;;;;15.91;84.31;99130.29;1710128;83;21043;-70
2022/07/12 00:43:19;;;;;;;3.08;1.32;;;;;;;15.89;84.95;99133.84;1697354;84;21081;-69
2022/07/12 00:45:45;;;;;;;2.42;1.30;;;;;;;15.87;85.30;99133.90;1711422;82;21047;-68
2022/07/12 00:48:13;;;;;;;2.45;1.00;;;;;;;15.87;85.61;99137.42;1694950;84;21266;-71
2022/07/12 00:50:41;;;;;;;1.37;1.22;;;;;;;15.86;85.90;99137.70;1709857;83;21497;-75
2022/07/12 00:53:07;;;;;;;1.27;1.10;;;;;;;15.83;86.06;99134.21;1710371;83;21588;-76
2022/07/12 00:55:34;;;;;;;2.95;1.25;;;;;;;15.82;86.42;99131.27;1710415;83;21033;-70
2022/07/12 00:58:01;;;;;;;1.65;1.30;;;;;;;15.81;86.58;99137.80;1709647;82;20972;-69
2022/07/12 01:00:28;;;;;;;1.02;1.00;;;;;;;15.80;86.64;99135.62;1695792;84;21247;-71
2022/07/12 01:02:56;;;;;;;1.77;1.02;;;;;;;15.80;86.88;99141.59;1697572;84;20944;-70
2022/07/12 01:05:23;;;;;;;1.65;1.10;;;;;;;15.78;87.02;99130.27;1694030;84;21071;-70
2022/07/12 01:07:50;;;;;;;0.90;0.90;;;;;;;15.70;87.14;99126.30;1704435;84;21569;-70
2022/07/12 01:10:16;;;;;;;2.12;1.27;;;;;;;15.65;87.57;99131.27;1705095;84;21091;-73
2022/07/12 01:12:43;;;;;;;1.90;1.35;;;;;;;15.64;87.44;99139.13;1707335;83;21155;-72
2022/07/12 01:15:11;;;;;;;4.50;1.10;;;;;;;15.64;87.44;99128.30;1717188;82;20968;-68
2022/07/12 01:17:40;;;;;;;3.37;1.40;;;;;;;15.65;87.27;99123.67;1696861;84;20953;-70
2022/07/12 01:20:08;;;;;;;3.72;1.22;;;;;;;15.65;86.99;99129.09;1710807;82;20928;-70
2022/07/12 01:22:40;;;;;;;4.60;1.42;;;;;;;15.64;86.69;99122.88;1694068;83;20964;-71
2022/07/12 01:25:08;;;;;;;1.27;1.17;;;;;;;15.66;86.68;99128.01;1710344;83;21651;-71
2022/07/12 01:27:35;;;;;;;1.72;1.20;;;;;;;15.66;86.68;99132.87;1710647;83;21522;-71
2022/07/12 01:30:04;;;;;;;4.97;1.40;;;;;;;15.68;86.67;99129.88;1664157;85;21060;-70
2022/07/12 01:32:32;;;;;;;1.37;1.27;;;;;;;15.69;86.51;99125.50;1695757;84;21084;-71
2022/07/12 01:35:04;;;;;;;1.30;1.20;;;;;;;15.71;86.52;99126.56;1705015;84;21021;-69
2022/07/12 01:37:33;;;;;;;1.05;1.05;;;;;;;15.70;86.44;99123.05;1705844;83;21048;-70
2022/07/12 01:40:00;;;;;;;1.77;1.25;;;;;;;15.69;86.42;99120.62;1710222;83;20984;-71
2022/07/12 01:42:29;;;;;;;1.80;1.32;;;;;;;15.67;86.34;99114.16;1710448;83;21036;-73
2022/07/12 01:44:56;;;;;;;1.45;1.17;;;;;;;15.69;86.28;99113.84;1710199;83;21022;-74
2022/07/12 01:47:27;;;;;;;2.33;1.00;;;;;;;15.70;86.19;99114.91;1697274;84;21533;-72
2022/07/12 01:49:53;;;;;;;1.22;0.85;;;;;;;15.74;85.95;99111.05;1696618;84;21149;-74
2022/07/12 01:52:20;;;;;;;3.45;1.22;;;;;;;15.76;85.76;99114.28;1706158;84;20921;-73
2022/07/12 01:54:47;;;;;;;3.77;1.12;;;;;;;15.75;85.67;99115.38;1710477;83;22140;-75
2022/07/12 01:57:14;;;;;;;2.47;1.30;;;;;;;15.75;85.66;99122.16;1697356;84;21140;-74
2022/07/12 01:59:42;;;;;;;7.80;1.47;;;;;;;15.74;85.65;99125.95;1710461;83;20984;-74
2022/07/12 02:02:09;;;;;;;1.82;1.22;;;;;;;15.75;85.78;99124.05;1710164;83;21053;-73
2022/07/12 02:04:36;;;;;;;3.65;1.25;;;;;;;15.78;85.78;99126.97;1696651;84;20945;-74
2022/07/12 02:07:05;;;;;;;6.80;1.17;;;;;;;15.84;85.77;99126.34;1704989;84;21005;-73
2022/07/12 02:09:32;;;;;;;1.42;1.32;;;;;;;15.88;85.79;99132.77;1710306;82;21051;-74
2022/07/12 02:12:01;;;;;;;0.88;0.88;;;;;;;15.89;85.44;99127.05;1710521;83;20989;-73
2022/07/12 02:14:29;;;;;;;1.47;1.27;;;;;;;15.88;85.38;99132.22;1697434;84;21183;-74
2022/07/12 02:16:58;;;;;;;1.47;1.17;;;;;;;15.88;85.25;99139.55;1681311;84;21009;-75
2022/07/12 02:19:24;;;;;;;1.52;1.37;;;;;;;15.83;85.33;99136.92;1709297;83;21012;-74
2022/07/12 02:21:51;;;;;;;2.25;1.00;;;;;;;15.82;85.24;99140.77;1708886;83;20993;-76
2022/07/12 02:24:18;;;;;;;1.32;1.22;;;;;;;15.81;85.08;99142.66;1709651;83;21527;-74
2022/07/12 02:26:45;;;;;;;2.05;1.17;;;;;;;15.78;84.96;99145.95;1697224;84;21119;-74
2022/07/12 02:29:11;;;;;;;5.08;1.32;;;;;;;15.77;84.89;99140.84;1705197;84;20982;-73
2022/07/12 02:31:38;;;;;;;1.27;1.17;;;;;;;15.71;84.97;99141.48;1704455;84;21129;-73
2022/07/12 02:34:05;;;;;;;6.22;2.15;;;;;;;15.70;84.99;99136.60;1710513;82;20988;-74
2022/07/12 02:36:33;;;;;;;1.98;1.77;;;;;;;15.69;85.02;99139.60;1710391;83;20992;-73
2022/07/12 02:39:04;;;;;;;2.80;1.50;;;;;;;15.65;85.07;99150.24;1710480;83;21073;-75
2022/07/12 02:41:31;;;;;;;1.70;1.60;;;;;;;15.63;85.18;99157.85;1709034;83;20921;-72
2022/07/12 02:43:58;;;;;;;1.85;1.67;;;;;;;15.61;85.34;99156.55;1652733;86;21519;-74
2022/07/12 02:46:25;;;;;;;3.45;1.67;;;;;;;15.63;85.48;99157.08;1677189;85;21075;-73
2022/07/12 02:48:52;;;;;;;4.80;1.67;;;;;;;15.64;85.47;99168.95;1695813;84;21061;-74
2022/07/12 02:51:19;;;;;;;1.80;1.27;;;;;;;15.62;85.39;99165.75;1706382;84;21053;-73
2022/07/12 02:53:46;;;;;;;3.00;1.70;;;;;;;15.62;85.51;99169.02;1704536;83;21592;-75
2022/07/12 02:56:12;;;;;;;2.80;1.87;;;;;;;15.56;85.61;99176.96;1685145;84;21029;-75
2022/07/12 02:58:39;;;;;;;2.10;1.72;;;;;;;15.54;85.74;99170.47;1710123;83;21029;-74
2022/07/12 03:01:07;;;;;;;4.65;2.45;;;;;;;15.57;85.71;99176.67;1697369;84;21077;-74
2022/07/12 03:03:33;;;;;;;3.40;2.17;;;;;;;15.58;85.54;99191.03;1689670;84;21156;-74
2022/07/12 03:06:00;;;;;;;2.35;2.10;;;;;;;15.55;85.36;99182.12;1707581;83;20989;-74
2022/07/12 03:08:26;;;;;;;1.77;1.57;;;;;;;15.52;85.37;99178.11;1705160;84;21028;-73
2022/07/12 03:10:53;;;;;;;4.12;3.17;;;;;;;15.51;85.44;99179.20;1705861;84;21490;-73
2022/07/12 03:13:20;;;;;;;2.35;1.57;;;;;;;15.53;85.47;99169.43;1710326;83;21032;-72
2022/07/12 03:15:49;;;;;;;2.15;1.67;;;;;;;15.58;85.41;99178.84;1694627;84;21971;-73
2022/07/12 03:18:17;;;;;;;2.90;1.10;;;;;;;15.62;85.11;99182.02;1704023;82;21002;-72
2022/07/12 03:20:44;;;;;;;3.12;1.55;;;;;;;15.62;84.83;99170.37;1687714;85;21021;-73
2022/07/12 03:23:10;;;;;;;1.70;1.12;;;;;;;15.61;84.63;99174.98;1686443;85;21554;-73
2022/07/12 03:25:37;;;;;;;1.30;1.22;;;;;;;15.61;84.53;99172.81;1675199;85;22205;-75
2022/07/12 03:28:04;;;;;;;2.52;1.75;;;;;;;15.60;84.55;99169.84;1703654;83;21240;-75
2022/07/12 03:30:31;;;;;;;4.67;2.20;;;;;;;15.61;84.56;99173.62;1703685;83;21056;-74
2022/07/12 03:32:58;;;;;;;3.62;2.50;;;;;;;15.66;84.49;99171.38;1689203;84;21055;-76
2022/07/12 03:35:26;;;;;;;5.37;2.70;;;;;;;15.67;84.29;99172.45;1703343;82;20929;-75
2022/07/12 03:37:53;;;;;;;6.25;2.77;;;;;;;15.69;84.09;99170.78;1682711;85;21071;-75
2022/07/12 03:40:20;;;;;;;3.77;2.20;;;;;;;15.64;83.90;99173.57;1686928;84;21030;-76
2022/07/12 03:42:49;;;;;;;2.05;1.67;;;;;;;15.60;83.93;99179.33;1679734;84;21044;-75
2022/07/12 03:45:16;;;;;;;2.45;2.15;;;;;;;15.52;83.93;99182.17;1714659;82;20940;-75
2022/07/12 03:47:42;;;;;;;4.17;1.77;;;;;;;15.52;84.15;99184.88;1677215;85;21632;-76
2022/07/12 03:50:12;;;;;;;5.33;3.40;;;;;;;15.54;84.22;99185.95;1701038;83;21556;-75
2022/07/12 03:52:41;;;;;;;2.92;1.95;;;;;;;15.58;84.14;99184.26;1716156;82;21813;-75
2022/07/12 03:55:09;;;;;;;2.55;2.08;;;;;;;15.63;83.94;99187.67;1703515;83;21543;-75
2022/07/12 03:57:36;;;;;;;3.25;1.95;;;;;;;15.61;83.62;99191.25;1703537;84;21007;-75
2022/07/12 04:00:08;;;;;;;3.02;1.85;;;;;;;15.60;83.43;99186.91;1703662;84;21079;-75
2022/07/12 04:02:35;;;;;;;4.95;2.60;;;;;;;15.61;83.32;99187.17;1700091;82;20967;-75
2022/07/12 04:05:03;;;;;;;6.62;2.12;;;;;;;15.62;83.37;99187.44;1703787;83;21132;-74
2022/07/12 04:07:30;;;;;;;2.98;1.67;;;;;;;15.66;83.32;99191.17;1689355;84;21020;-75
2022/07/12 04:09:58;;;;;;;5.53;2.58;;;;;;;15.73;83.06;99186.70;1703663;84;22123;-75
2022/07/12 04:12:24;;;;;;;3.95;2.37;;;;;;;15.75;82.52;99184.52;1703546;83;20972;-74
2022/07/12 04:14:51;;;;;;;3.10;1.80;;;;;;;15.76;82.15;99188.03;1703636;83;21485;-73
2022/07/12 04:17:18;;;;;;;2.25;1.35;;;;;;;15.76;81.78;99201.59;1691194;84;21143;-74
2022/07/12 04:19:45;;;;;;;1.45;1.35;;;;;;;15.75;81.79;99207.56;1702075;84;21019;-74
2022/07/12 04:22:12;;;;;;;3.15;2.30;;;;;;;15.79;81.83;99200.45;1705076;84;21427;-73
2022/07/12 04:24:39;;;;;;;3.92;1.30;;;;;;;15.85;81.68;99216.09;1706013;84;21096;-73
2022/07/12 04:27:06;;;;;;;3.30;1.27;;;;;;;15.89;81.17;99211.13;1710007;83;20936;-73
2022/07/12 04:29:35;;;;;;;1.37;1.25;;;;;;;15.91;80.20;99221.69;1694229;83;21556;-73
2022/07/12 04:32:04;;;;;;;3.60;1.40;;;;;;;15.89;79.81;99218.45;1710394;82;21521;-74
2022/07/12 04:34:31;;;;;;;3.52;1.30;;;;;;;15.86;79.99;99221.22;1686227;84;21507;-73
2022/07/12 04:36:57;;;;;;;1.17;1.12;;;;;;;15.84;79.92;99204.98;1710487;83;21584;-74
2022/07/12 04:39:24;;;;;;;3.77;1.20;;;;;;;15.82;80.00;99208.01;1680441;85;20959;-74
2022/07/12 04:41:51;;;;;;;1.52;1.27;;;;;;;15.85;80.37;99202.53;1697194;84;21231;-73
2022/07/12 04:44:18;;;;;;;1.52;1.35;;;;;;;15.88;80.55;99200.02;1710296;82;20967;-74
2022/07/12 04:46:45;;;;;;;1.22;1.10;;;;;;;15.95;80.69;99199.65;1709941;83;21031;-73
2022/07/12 04:49:11;;;;;;;3.20;1.40;;;;;;;16.01;80.47;99201.99;1710345;83;21024;-73
2022/07/12 04:51:38;;;;;;;3.08;1.82;;;;;;;16.03;79.91;99205.74;1710528;82;20976;-72
2022/07/12 04:54:05;;;;;;;3.30;1.87;;;;;;;16.04;79.65;99202.74;1696299;84;21331;-73
2022/07/12 04:56:32;;;;;;;2.12;1.77;;;;;;;16.08;79.52;99207.82;1704628;83;20960;-71
2022/07/12 04:59:00;;;;;;;2.83;1.35;;;;;;;16.12;79.32;99212.91;1704923;83;21502;-73
2022/07/12 05:01:29;;;;;;;1.42;1.30;;;;;;;16.15;79.00;99210.16;1705381;84;21079;-73
2022/07/12 05:03:56;;;;;;;1.98;1.12;;;;;;;16.17;78.51;99217.44;1704966;83;21624;-71
2022/07/12 05:06:24;;;;;;;1.98;1.50;;;;;;;16.19;78.58;99221.22;1704770;83;21206;-73
2022/07/12 05:08:51;;;;;;;2.42;1.32;;;;;;;16.21;78.40;99214.95;1704069;84;21587;-73
2022/07/12 05:11:19;;;;;;;1.55;1.40;;;;;;;16.25;78.32;99221.39;1710169;82;21047;-73
2022/07/12 05:13:46;;;;;;;3.33;1.40;;;;;;;16.28;78.01;99216.71;1697404;84;21010;-74
2022/07/12 05:16:14;;;;;;;1.77;1.35;;;;;;;16.33;77.74;99224.22;1709410;82;21493;-74
2022/07/12 05:18:41;;;;;;;1.87;1.50;;;;;;;16.40;76.74;99249.62;1697410;84;21446;-74
2022/07/12 05:21:08;;;;;;;2.40;1.52;;;;;;;16.42;76.76;99238.70;1706078;83;21052;-75
2022/07/12 05:23:35;;;;;;;3.20;1.50;;;;;;;16.42;76.95;99232.47;1710466;83;21003;-76
2022/07/12 05:26:02;;;;;;;1.87;1.25;;;;;;;16.44;77.18;99238.41;1710239;82;21176;-75
2022/07/12 05:28:29;;;;;;;3.17;1.57;;;;;;;16.47;77.32;99224.23;1697232;84;21069;-76
2022/07/12 05:30:56;;;;;;;1.52;1.40;;;;;;;16.54;77.37;99238.23;1687054;83;21550;-74
2022/07/12 05:33:23;;;;;;;1.62;1.42;;;;;;;16.61;76.88;99235.94;1740383;82;21091;-74
2022/07/12 05:35:51;;;;;;;2.95;1.10;;;;;;;16.67;76.23;99252.95;1726117;82;21013;-76
2022/07/12 05:38:18;;;;;;;5.65;1.87;;;;;;;16.71;75.56;99235.75;1696932;84;21101;-75
2022/07/12 05:40:45;;;;;;;5.75;2.62;;;;;;;16.76;75.57;99234.84;1696868;84;20938;-73
2022/07/12 05:43:13;;;;;;;1.80;1.20;;;;;;;16.81;75.47;99236.91;1706237;84;21265;-72
2022/07/12 05:45:42;;;;;;;1.67;1.57;;;;;;;16.83;74.92;99248.84;1706676;83;21059;-72
2022/07/12 05:48:10;;;;;;;1.57;1.47;;;;;;;16.85;74.84;99243.90;1706146;84;20905;-72
2022/07/12 05:50:37;;;;;;;1.87;1.30;;;;;;;16.88;74.95;99235.17;1706343;83;21316;-74
2022/07/12 05:53:22;;;;;;;1.98;1.57;;;;;;;16.94;74.77;99247.52;1706583;84;20998;-71
2022/07/12 05:55:51;;;;;;;4.28;1.82;;;;;;;17.00;74.31;99241.69;1711209;83;21117;-74
2022/07/12 05:58:18;;;;;;;6.47;1.57;;;;;;;17.09;73.64;99258.64;1708698;83;21032;-73
2022/07/12 06:00:46;;;;;;;3.85;1.50;;;;;;;17.14;72.91;99238.95;1707218;83;20964;-74
2022/07/12 06:03:16;;;;;;;3.55;1.20;;;;;;;17.19;72.90;99244.84;1706127;84;21051;-73
2022/07/12 06:05:43;;;;;;;1.77;1.35;;;;;;;17.24;72.99;99256.96;1709610;82;21036;-73
2022/07/12 06:08:11;;;;;;;3.15;1.35;;;;;;;17.30;72.87;99253.84;1692775;84;21764;-74
2022/07/12 06:10:38;;;;;;;3.70;1.40;;;;;;;17.36;72.14;99256.68;1709202;83;21003;-76
2022/07/12 06:13:05;;;;;;;3.20;1.50;;;;;;;17.39;71.73;99250.66;1709162;83;21051;-74
2022/07/12 06:15:31;;;;;;;1.72;1.62;;;;;;;17.46;71.59;99251.58;1711297;82;21034;-73
2022/07/12 06:17:58;;;;;;;5.50;1.72;;;;;;;17.52;70.30;99265.88;1676634;84;20989;-73
2022/07/12 06:20:26;;;;;;;2.25;1.32;;;;;;;17.53;69.73;99279.17;1727790;82;21136;-74
2022/07/12 06:22:52;;;;;;;2.85;1.37;;;;;;;17.55;69.40;99259.84;1694274;84;21636;-73
2022/07/12 06:25:20;;;;;;;1.50;1.22;;;;;;;17.57;69.42;99295.13;1690705;84;21587;-71
2022/07/12 06:27:48;;;;;;;2.72;1.20;;;;;;;17.61;69.20;99264.06;1695760;84;21245;-76
2022/07/12 06:30:19;;;;;;;8.18;1.30;;;;;;;17.66;69.46;99268.03;1710374;83;21619;-73
2022/07/12 06:32:46;;;;;;;4.83;1.70;;;;;;;17.71;69.12;99268.73;1660759;84;21066;-74
2022/07/12 06:35:13;;;;;;;3.55;1.77;;;;;;;17.75;69.02;99275.70;1705044;83;21044;-71
2022/07/12 06:37:41;;;;;;;1.42;1.32;;;;;;;17.81;69.33;99276.66;1705721;84;21051;-71
2022/07/12 06:40:10;;;;;;;1.85;1.50;;;;;;;17.88;68.38;99288.48;1707295;83;21599;-74
2022/07/12 06:42:37;;;;;;;3.58;1.20;;;;;;;17.95;68.23;99292.13;1694838;83;21083;-73
2022/07/12 06:45:06;;;;;;;3.15;1.52;;;;;;;17.98;67.81;99280.64;1696936;84;21264;-72
2022/07/12 06:47:32;;;;;;;1.30;1.20;;;;;;;18.04;68.13;99282.91;1691798;83;21544;-71
2022/07/12 06:50:01;;;;;;;4.70;1.77;;;;;;;18.16;67.76;99294.63;1695753;84;20976;-74
2022/07/12 06:52:29;;;;;;;2.42;1.52;;;;;;;18.24;66.94;99292.51;1695678;84;21033;-76
2022/07/12 06:54:57;;;;;;;1.45;1.10;;;;;;;18.34;66.26;99305.06;1710880;83;21173;-71
2022/07/12 06:57:24;;;;;;;5.75;1.42;;;;;;;18.41;65.57;99298.08;1709049;83;22585;-70
2022/07/12 06:59:51;;;;;;;1.55;1.45;;;;;;;18.45;64.73;99309.96;1695692;84;20981;-72
2022/07/12 07:02:17;;;;;;;1.95;1.20;;;;;;;18.49;64.20;99308.77;1705104;84;21064;-73
2022/07/12 07:04:44;;;;;;;1.60;1.27;;;;;;;18.50;64.51;99311.19;1705055;83;21036;-73
2022/07/12 07:07:12;;;;;;;2.25;1.45;;;;;;;18.54;64.53;99322.30;1705572;83;21028;-72
2022/07/12 07:09:39;;;;;;;2.30;1.45;;;;;;;18.54;64.18;99327.74;1705467;83;21919;-71
2022/07/12 07:12:08;;;;;;;1.80;1.35;;;;;;;18.55;64.16;99319.83;1711303;82;21006;-72
2022/07/12 07:14:36;;;;;;;8.75;1.20;;;;;;;18.56;64.49;99312.68;1697287;84;21534;-77
2022/07/12 07:17:04;;;;;;;1.40;1.30;;;;;;;18.61;64.55;99319.92;1697229;84;21061;-73
2022/07/12 07:19:31;;;;;;;4.42;1.55;;;;;;;18.67;63.97;99330.94;1710531;82;21000;-74
2022/07/12 07:21:58;;;;;;;2.00;1.57;;;;;;;18.72;63.32;99336.26;1697337;84;21150;-74
2022/07/12 07:24:25;;;;;;;7.28;1.42;;;;;;;18.74;63.08;99344.94;1697374;84;20961;-70
2022/07/12 07:26:52;;;;;;;2.25;1.17;;;;;;;18.75;63.25;99317.94;1706493;83;20973;-73
2022/07/12 07:32:06;;;;;;;5.72;1.27;;;;;;;18.75;62.40;99346.55;1669290;86;21584;-74
2022/07/12 07:34:33;;;;;;;1.50;0.93;;;;;;;18.73;62.45;99333.78;1694502;83;21799;-74
2022/07/12 07:37:00;;;;;;;1.10;1.00;;;;;;;18.74;62.55;99332.67;1678298;84;20991;-72
2022/07/12 07:39:27;;;;;;;2.27;0.90;;;;;;;18.75;61.23;99342.47;1707769;83;21124;-74
2022/07/12 07:41:55;;;;;;;3.30;0.95;;;;;;;18.75;60.75;99342.47;1694480;83;21051;-71
2022/07/12 07:44:22;;;;;;;0.93;0.90;;;;;;;18.72;60.31;99347.16;1697273;84;21028;-75
2022/07/12 07:46:49;;;;;;;1.47;1.07;;;;;;;18.69;60.10;99350.52;1709691;83;21151;-73
2022/07/12 07:49:16;;;;;;;1.25;0.80;;;;;;;18.71;60.40;99345.55;1696785;84;20997;-73
2022/07/12 07:51:43;;;;;;;0.70;0.62;;;;;;;18.77;59.30;99355.20;1710105;82;21587;-75
2022/07/12 07:54:11;;;;;;;1.20;1.10;;;;;;;18.79;58.89;99354.34;1697187;84;21092;-72
2022/07/12 07:56:38;;;;;;;1.10;1.00;;;;;;;18.79;59.39;99341.27;1710195;83;21059;-75
2022/07/12 07:59:07;;;;;;;1.52;0.82;;;;;;;18.78;59.85;99350.56;1710046;82;22052;-73
2022/07/12 08:01:52;;;;;;;0.72;0.72;;;;;;;18.79;60.34;99361.71;1695860;84;20977;-73
2022/07/12 08:04:15;;;;;;;1.22;1.15;;;;;;;18.81;59.12;99356.18;1704189;83;20972;-75
2022/07/12 08:06:41;;;;;;;0.90;0.70;;;;;;;18.83;58.53;99366.78;1679502;85;21008;-73
2022/07/12 08:09:08;;;;;;;2.95;1.47;;;;;;;18.85;58.77;99368.06;1710581;82;21074;-72
2022/07/12 08:11:36;;;;;;;1.72;1.20;;;;;;;18.89;58.66;99351.91;1697057;84;21117;-75
2022/07/12 08:14:06;;;;;;;1.27;1.10;;;;;;;18.94;58.99;99367.58;1709194;82;21603;-73
2022/07/12 08:16:33;;;;;;;1.98;0.80;;;;;;;18.99;58.21;99372.09;1714734;82;20974;-73
2022/07/12 08:19:01;;;;;;;1.30;1.12;;;;;;;19.00;58.08;99358.13;1710436;82;20972;-75
2022/07/12 08:21:28;;;;;;;3.30;1.60;;;;;;;19.01;58.67;99372.56;1697208;84;21053;-74
2022/07/12 08:23:56;;;;;;;2.33;1.17;;;;;;;19.02;58.99;99367.36;1697077;84;21587;-73
2022/07/12 08:26:23;;;;;;;1.50;1.32;;;;;;;19.03;59.51;99351.26;1705705;83;20984;-70
2022/07/12 08:28:50;;;;;;;1.20;1.10;;;;;;;19.09;59.87;99352.16;1710302;82;21012;-73
2022/07/12 08:31:18;;;;;;;3.90;1.55;;;;;;;19.15;59.93;99356.36;1674400;84;21573;-71
2022/07/12 08:33:44;;;;;;;2.02;1.17;;;;;;;19.18;59.83;99369.13;1695841;84;21037;-71
2022/07/12 08:36:11;;;;;;;0.82;0.82;;;;;;;19.23;57.80;99375.25;1679627;85;21158;-72
2022/07/12 08:38:40;;;;;;;2.60;1.00;;;;;;;19.26;57.08;99366.98;1660079;85;20948;-74
2022/07/12 08:41:07;;;;;;;3.85;0.93;;;;;;;19.27;57.61;99365.32;1695958;84;21100;-72
2022/07/12 08:43:35;;;;;;;3.02;1.10;;;;;;;19.32;57.16;99360.28;1710384;83;21512;-71
2022/07/12 08:46:10;;;;;;;0.95;0.95;;;;;;;19.28;57.52;99356.00;1710451;83;21670;-71
2022/07/12 08:48:38;;;;;;;4.03;1.12;;;;;;;19.34;57.63;99367.57;1710260;82;21260;-74
2022/07/12 08:51:20;;;;;;;1.05;0.90;;;;;;;19.39;56.76;99359.25;1697000;84;20985;-71
2022/07/12 08:53:49;;;;;;;1.35;0.80;;;;;;;19.42;55.42;99368.98;1707627;83;21023;-72
2022/07/12 08:56:37;;;;;;;1.35;1.12;;;;;;;19.44;54.91;99376.87;1680309;84;21103;-73
2022/07/12 08:59:21;;;;;;;1.45;0.80;;;;;;;19.44;55.19;99371.41;1679756;84;21029;-73
2022/07/12 09:01:50;;;;;;;0.82;0.82;;;;;;;19.42;55.17;99355.91;1698130;83;21249;-74
2022/07/12 09:04:25;;;;;;;0.98;0.90;;;;;;;19.41;54.69;99355.66;1707775;83;21469;-71
2022/07/12 09:06:52;;;;;;;1.27;0.80;;;;;;;19.39;55.00;99356.52;1708180;83;21087;-73
2022/07/12 09:09:32;;;;;;;1.57;1.00;;;;;;;19.40;55.66;99365.76;1697121;84;21010;-74
2022/07/12 09:12:01;;;;;;;0.90;0.90;;;;;;;19.43;55.82;99361.03;1712917;82;21027;-74
2022/07/12 09:14:28;;;;;;;0.80;0.80;;;;;;;19.49;55.79;99359.00;1690222;84;21193;-75
2022/07/12 09:17:09;;;;;;;2.40;1.37;;;;;;;19.53;55.36;99353.95;1694974;84;20980;-74
2022/07/12 09:19:33;;;;;;;3.75;1.12;;;;;;;19.59;55.20;99358.70;1691176;84;21655;-73
2022/07/12 09:21:59;;;;;;;2.15;1.62;;;;;;;19.66;55.39;99354.16;1739847;82;20972;-73
2022/07/12 09:24:30;;;;;;;2.50;1.20;;;;;;;19.72;55.42;99356.40;1729176;82;21051;-69
2022/07/12 09:27:00;;;;;;;1.47;1.37;;;;;;;19.80;55.74;99361.09;1694388;83;21503;-74
2022/07/12 09:29:27;;;;;;;1.80;1.37;;;;;;;19.92;55.52;99382.28;1684712;83;21646;-73
2022/07/12 09:37:26;;;;;;;1.67;1.30;;;;;;;20.05;54.25;99370.41;1696186;84;21112;-73
2022/07/12 09:39:54;;;;;;;2.42;1.30;;;;;;;20.10;53.76;99370.81;1696660;83;21239;-75
2022/07/12 09:42:21;;;;;;;4.78;2.05;;;;;;;20.15;52.88;99363.27;1709896;83;20909;-78
2022/07/12 09:44:48;;;;;;;1.27;0.90;;;;;;;20.20;51.43;99385.52;1709978;83;21094;-75
2022/07/12 09:47:18;;;;;;;1.60;1.02;;;;;;;20.20;51.07;99360.94;1693196;84;21095;-73
2022/07/12 09:49:45;;;;;;;3.12;1.17;;;;;;;20.23;51.40;99361.69;1697403;84;21084;-76
2022/07/12 09:52:22;;;;;;;1.50;1.40;;;;;;;20.31;51.00;99352.71;1710374;83;21143;-74
2022/07/12 09:54:52;;;;;;;4.70;1.30;;;;;;;20.34;50.63;99357.52;1717492;82;21575;-74
2022/07/12 09:57:30;;;;;;;1.47;0.70;;;;;;;20.40;50.53;99364.43;1696930;84;21034;-77
2022/07/12 09:59:59;;;;;;;3.08;1.10;;;;;;;20.49;50.19;99364.42;1690502;84;21762;-74
2022/07/12 10:02:26;;;;;;;0.85;0.78;;;;;;;20.59;50.51;99370.91;1695901;84;21586;-78
2022/07/12 10:04:53;;;;;;;1.07;0.98;;;;;;;20.64;50.10;99368.83;1694679;84;21981;-69
2022/07/12 10:07:21;;;;;;;0.90;0.80;;;;;;;20.67;50.32;99368.75;1697034;84;20965;-65
2022/07/12 10:09:53;;;;;;;11.40;2.83;;;;;;;20.75;50.69;99362.46;1696257;84;20964;-68
2022/07/12 10:12:21;;;;;;;1.40;1.20;;;;;;;20.88;50.18;99369.09;1702265;83;21072;-68
2022/07/12 10:14:53;;;;;;;1.65;0.88;;;;;;;21.02;48.46;99362.62;1710671;82;21066;-67
2022/07/12 10:17:24;;;;;;;2.70;0.93;;;;;;;21.06;47.68;99373.14;1709507;83;20994;-69
2022/07/12 10:20:17;;;;;;;4.05;1.02;;;;;;;21.04;47.74;99369.38;1697609;84;21084;-69
2022/07/12 10:22:44;;;;;;;2.20;1.80;;;;;;;21.05;47.36;99326.44;1651537;85;21060;-68
2022/07/12 10:25:32;;;;;;;2.40;1.02;;;;;;;21.10;47.58;99348.13;1651949;85;21087;-67
2022/07/12 10:27:59;;;;;;;0.98;0.70;;;;;;;21.18;47.26;99350.05;1692000;82;21012;-69
2022/07/12 10:30:28;;;;;;;3.27;1.00;;;;;;;21.23;47.29;99352.61;1688028;85;21902;-71
2022/07/12 10:32:58;;;;;;;0.72;0.60;;;;;;;21.28;47.23;99355.16;1687985;84;21021;-68
2022/07/12 10:35:28;;;;;;;1.00;0.90;;;;;;;21.33;47.52;99349.52;1686649;84;21085;-69
2022/07/12 10:38:16;;;;;;;2.02;0.80;;;;;;;21.38;46.67;99343.86;1686830;84;21026;-71
2022/07/12 10:40:47;;;;;;;0.98;0.80;;;;;;;21.44;47.29;99360.89;1674219;85;36953;-75
2022/07/12 10:43:16;;;;;;;1.10;1.00;;;;;;;21.42;46.85;99362.58;1686219;84;21439;-73
2022/07/12 10:45:44;;;;;;;0.55;0.55;;;;;;;21.42;47.27;99366.69;1703560;84;21632;-71
2022/07/12 10:48:21;;;;;;;1.25;0.60;;;;;;;21.45;46.48;99370.13;1703589;82;20984;-71
2022/07/12 10:50:56;;;;;;;1.05;0.80;;;;;;;21.43;46.76;99360.66;1688017;84;21101;-74
2022/07/12 10:53:37;;;;;;;0.70;0.70;;;;;;;21.43;46.85;99368.86;1689906;84;21572;-75
2022/07/12 10:56:14;;;;;;;0.85;0.80;;;;;;;21.42;46.82;99365.88;1703780;84;21192;-75
2022/07/12 10:58:56;;;;;;;1.67;1.57;;;;;;;21.41;47.14;99375.22;1704772;82;20945;-73
2022/07/12 11:01:29;;;;;;;1.90;1.10;;;;;;;21.32;47.25;99379.36;1703351;83;21006;-74
2022/07/12 11:04:06;;;;;;;0.80;0.80;;;;;;;21.27;47.55;99378.17;1702590;84;21012;-71
2022/07/12 11:06:39;;;;;;;1.55;1.30;;;;;;;21.33;48.05;99360.45;1703437;84;21027;-69
2022/07/12 11:09:08;;;;;;;2.17;1.02;;;;;;;21.32;48.54;99364.31;1703785;82;21111;-71
2022/07/12 11:11:48;;;;;;;1.02;0.93;;;;;;;21.34;48.67;99368.91;1688044;85;21017;-70
2022/07/12 11:14:30;;;;;;;3.02;1.07;;;;;;;21.38;49.69;99373.14;1688239;84;21032;-72
2022/07/12 11:16:57;;;;;;;2.72;1.20;;;;;;;21.16;52.05;99369.52;1683700;84;21111;-73
2022/07/12 11:19:30;;;;;;;1.25;1.15;;;;;;;20.92;54.36;99375.27;1701207;82;21055;-72
2022/07/12 11:21:57;;;;;;;2.67;1.32;;;;;;;20.90;55.22;99361.95;1696038;84;20990;-71
2022/07/12 11:24:34;;;;;;;2.15;1.05;;;;;;;20.97;56.73;99361.42;1695773;84;21036;-72
2022/07/12 11:27:01;;;;;;;1.67;0.70;;;;;;;21.00;57.11;99358.06;1669122;86;20953;-73
2022/07/12 11:29:28;;;;;;;1.30;1.17;;;;;;;21.07;57.04;99348.20;1673551;84;21027;-74
2022/07/12 11:32:04;;;;;;;1.62;1.52;;;;;;;21.06;56.42;99341.12;1697148;84;21668;-71
2022/07/12 11:34:31;;;;;;;2.08;1.00;;;;;;;21.08;56.60;99329.31;1698756;84;21246;-70
2022/07/12 11:37:03;;;;;;;2.02;1.92;;;;;;;21.21;55.47;99332.41;1698768;84;21529;-69
2022/07/12 11:39:40;;;;;;;2.25;1.65;;;;;;;21.25;54.80;99325.71;1698325;83;20996;-72
2022/07/12 11:42:13;;;;;;;1.37;1.20;;;;;;;21.33;54.37;99316.68;1701397;84;21463;-70
2022/07/12 11:44:50;;;;;;;0.90;0.70;;;;;;;21.43;54.56;99319.05;1703462;83;20997;-72
2022/07/12 11:47:20;;;;;;;0.90;0.90;;;;;;;21.52;54.50;99323.09;1702237;84;21116;-70
2022/07/12 11:49:52;;;;;;;1.37;1.12;;;;;;;21.59;54.28;99337.84;1702157;83;21528;-69